sensor_id;sensor_type;location;lat;lon;timestamp;P1;durP1;ratioP1;P2;durP2;ratioP2
46835;SDS011;32573;51.290;6.926;2023-06-14T00:00:45;5.47;;;3.08;;
46835;SDS011;32573;51.290;6.926;2023-06-14T00:03:15;4.47;;;2.80;;
46835;SDS011;32573;51.290;6.926;2023-06-14T00:05:45;4.35;;;2.65;;
46835;SDS011;32573;51.290;6.926;2023-06-14T00:08:14;4.47;;;2.70;;
46835;SDS011;32573;51.290;6.926;2023-06-14T00:10:42;4.40;;;2.60;;
46835;SDS011;32573;51.290;6.926;2023-06-14T00:13:11;5.32;;;2.78;;
46835;SDS011;32573;51.290;6.926;2023-06-14T00:15:39;4.93;;;2.90;;
46835;SDS011;32573;51.290;6.926;2023-06-14T00:18:10;4.63;;;2.75;;
46835;SDS011;32573;51.290;6.926;2023-06-14T00:20:39;4.93;;;2.88;;
46835;SDS011;32573;51.290;6.926;2023-06-14T00:23:09;4.88;;;2.83;;
46835;SDS011;32573;51.290;6.926;2023-06-14T00:25:38;4.75;;;2.70;;
46835;SDS011;32573;51.290;6.926;2023-06-14T00:28:06;4.38;;;2.67;;
46835;SDS011;32573;51.290;6.926;2023-06-14T00:30:35;4.78;;;2.80;;
46835;SDS011;32573;51.290;6.926;2023-06-14T00:33:03;4.95;;;3.00;;
46835;SDS011;32573;51.290;6.926;2023-06-14T00:35:33;4.40;;;2.72;;
46835;SDS011;32573;51.290;6.926;2023-06-14T00:38:03;4.43;;;2.67;;
46835;SDS011;32573;51.290;6.926;2023-06-14T00:40:32;4.82;;;2.85;;
46835;SDS011;32573;51.290;6.926;2023-06-14T00:43:01;4.72;;;2.63;;
46835;SDS011;32573;51.290;6.926;2023-06-14T00:45:30;4.10;;;2.55;;
46835;SDS011;32573;51.290;6.926;2023-06-14T00:48:02;5.25;;;2.78;;
46835;SDS011;32573;51.290;6.926;2023-06-14T00:50:35;5.15;;;3.00;;
46835;SDS011;32573;51.290;6.926;2023-06-14T00:53:05;4.97;;;2.92;;
46835;SDS011;32573;51.290;6.926;2023-06-14T00:55:33;5.50;;;2.97;;
46835;SDS011;32573;51.290;6.926;2023-06-14T00:58:02;5.70;;;3.10;;
46835;SDS011;32573;51.290;6.926;2023-06-14T01:00:31;4.60;;;2.70;;
46835;SDS011;32573;51.290;6.926;2023-06-14T01:02:59;4.85;;;3.20;;
46835;SDS011;32573;51.290;6.926;2023-06-14T01:05:29;5.32;;;3.00;;
46835;SDS011;32573;51.290;6.926;2023-06-14T01:08:05;4.43;;;2.90;;
46835;SDS011;32573;51.290;6.926;2023-06-14T01:10:40;4.60;;;2.80;;
46835;SDS011;32573;51.290;6.926;2023-06-14T01:13:19;5.18;;;3.08;;
46835;SDS011;32573;51.290;6.926;2023-06-14T01:15:49;4.95;;;2.63;;
46835;SDS011;32573;51.290;6.926;2023-06-14T01:18:19;4.78;;;2.63;;
46835;SDS011;32573;51.290;6.926;2023-06-14T01:20:47;4.50;;;2.72;;
46835;SDS011;32573;51.290;6.926;2023-06-14T01:23:18;4.32;;;3.00;;
46835;SDS011;32573;51.290;6.926;2023-06-14T01:25:48;4.55;;;2.90;;
46835;SDS011;32573;51.290;6.926;2023-06-14T01:28:20;4.35;;;2.70;;
46835;SDS011;32573;51.290;6.926;2023-06-14T01:30:50;4.20;;;2.45;;
46835;SDS011;32573;51.290;6.926;2023-06-14T01:33:22;4.72;;;2.78;;
46835;SDS011;32573;51.290;6.926;2023-06-14T01:35:57;4.78;;;2.92;;
46835;SDS011;32573;51.290;6.926;2023-06-14T01:38:31;4.68;;;2.70;;
46835;SDS011;32573;51.290;6.926;2023-06-14T01:41:00;5.00;;;2.97;;
46835;SDS011;32573;51.290;6.926;2023-06-14T01:43:29;4.35;;;2.85;;
46835;SDS011;32573;51.290;6.926;2023-06-14T01:45:59;5.30;;;2.80;;
46835;SDS011;32573;51.290;6.926;2023-06-14T01:48:28;4.20;;;2.45;;
46835;SDS011;32573;51.290;6.926;2023-06-14T01:50:57;5.35;;;3.10;;
46835;SDS011;32573;51.290;6.926;2023-06-14T01:53:26;4.68;;;2.75;;
46835;SDS011;32573;51.290;6.926;2023-06-14T01:55:56;4.45;;;2.55;;
46835;SDS011;32573;51.290;6.926;2023-06-14T01:58:25;4.80;;;2.80;;
46835;SDS011;32573;51.290;6.926;2023-06-14T02:00:53;4.40;;;2.50;;
46835;SDS011;32573;51.290;6.926;2023-06-14T02:03:23;4.72;;;2.67;;
46835;SDS011;32573;51.290;6.926;2023-06-14T02:05:52;6.07;;;3.03;;
46835;SDS011;32573;51.290;6.926;2023-06-14T02:08:21;4.85;;;3.03;;
46835;SDS011;32573;51.290;6.926;2023-06-14T02:10:50;5.05;;;2.83;;
46835;SDS011;32573;51.290;6.926;2023-06-14T02:13:22;5.60;;;2.90;;
46835;SDS011;32573;51.290;6.926;2023-06-14T02:15:51;4.90;;;2.83;;
46835;SDS011;32573;51.290;6.926;2023-06-14T02:18:22;4.38;;;2.72;;
46835;SDS011;32573;51.290;6.926;2023-06-14T02:20:51;5.13;;;2.97;;
46835;SDS011;32573;51.290;6.926;2023-06-14T02:23:19;4.45;;;2.75;;
46835;SDS011;32573;51.290;6.926;2023-06-14T02:25:48;5.68;;;3.03;;
46835;SDS011;32573;51.290;6.926;2023-06-14T02:28:16;5.13;;;2.92;;
46835;SDS011;32573;51.290;6.926;2023-06-14T02:30:46;6.05;;;2.80;;
46835;SDS011;32573;51.290;6.926;2023-06-14T02:33:15;5.65;;;3.20;;
46835;SDS011;32573;51.290;6.926;2023-06-14T02:35:44;4.85;;;2.95;;
46835;SDS011;32573;51.290;6.926;2023-06-14T02:38:13;5.68;;;2.58;;
46835;SDS011;32573;51.290;6.926;2023-06-14T02:40:42;4.68;;;2.80;;
46835;SDS011;32573;51.290;6.926;2023-06-14T02:43:10;5.13;;;2.75;;
46835;SDS011;32573;51.290;6.926;2023-06-14T02:45:40;4.85;;;2.90;;
46835;SDS011;32573;51.290;6.926;2023-06-14T02:48:10;5.10;;;2.80;;
46835;SDS011;32573;51.290;6.926;2023-06-14T02:50:40;5.80;;;3.00;;
46835;SDS011;32573;51.290;6.926;2023-06-14T02:53:09;5.53;;;2.70;;
46835;SDS011;32573;51.290;6.926;2023-06-14T02:55:40;4.60;;;2.55;;
46835;SDS011;32573;51.290;6.926;2023-06-14T02:58:12;4.63;;;2.70;;
46835;SDS011;32573;51.290;6.926;2023-06-14T03:00:41;4.97;;;2.95;;
46835;SDS011;32573;51.290;6.926;2023-06-14T03:03:11;5.25;;;2.65;;
46835;SDS011;32573;51.290;6.926;2023-06-14T03:05:44;4.60;;;2.72;;
46835;SDS011;32573;51.290;6.926;2023-06-14T03:08:20;4.55;;;2.85;;
46835;SDS011;32573;51.290;6.926;2023-06-14T03:10:51;5.00;;;2.88;;
46835;SDS011;32573;51.290;6.926;2023-06-14T03:13:20;4.88;;;2.80;;
46835;SDS011;32573;51.290;6.926;2023-06-14T03:15:50;4.20;;;2.40;;
46835;SDS011;32573;51.290;6.926;2023-06-14T03:18:22;4.53;;;2.80;;
46835;SDS011;32573;51.290;6.926;2023-06-14T03:20:55;5.30;;;2.75;;
46835;SDS011;32573;51.290;6.926;2023-06-14T03:23:27;5.13;;;2.72;;
46835;SDS011;32573;51.290;6.926;2023-06-14T03:25:55;4.57;;;2.65;;
46835;SDS011;32573;51.290;6.926;2023-06-14T03:28:24;4.22;;;2.47;;
46835;SDS011;32573;51.290;6.926;2023-06-14T03:30:54;5.00;;;2.70;;
46835;SDS011;32573;51.290;6.926;2023-06-14T03:33:25;4.40;;;2.70;;
46835;SDS011;32573;51.290;6.926;2023-06-14T03:35:54;4.95;;;2.88;;
46835;SDS011;32573;51.290;6.926;2023-06-14T03:38:23;5.22;;;2.60;;
46835;SDS011;32573;51.290;6.926;2023-06-14T03:40:52;5.03;;;2.85;;
46835;SDS011;32573;51.290;6.926;2023-06-14T03:43:21;4.43;;;2.55;;
46835;SDS011;32573;51.290;6.926;2023-06-14T03:45:50;4.70;;;2.85;;
46835;SDS011;32573;51.290;6.926;2023-06-14T03:48:19;4.63;;;2.80;;
46835;SDS011;32573;51.290;6.926;2023-06-14T03:50:49;6.32;;;2.72;;
46835;SDS011;32573;51.290;6.926;2023-06-14T03:53:18;5.05;;;2.67;;
46835;SDS011;32573;51.290;6.926;2023-06-14T03:55:49;4.75;;;2.80;;
46835;SDS011;32573;51.290;6.926;2023-06-14T03:58:40;4.32;;;2.50;;
46835;SDS011;32573;51.290;6.926;2023-06-14T04:01:09;4.22;;;2.47;;
46835;SDS011;32573;51.290;6.926;2023-06-14T04:03:39;3.80;;;2.20;;
46835;SDS011;32573;51.290;6.926;2023-06-14T04:06:09;4.75;;;2.55;;
46835;SDS011;32573;51.290;6.926;2023-06-14T04:08:38;4.20;;;2.25;;
46835;SDS011;32573;51.290;6.926;2023-06-14T04:11:08;4.68;;;2.53;;
46835;SDS011;32573;51.290;6.926;2023-06-14T04:13:38;4.68;;;2.70;;
46835;SDS011;32573;51.290;6.926;2023-06-14T04:16:06;4.35;;;2.33;;
46835;SDS011;32573;51.290;6.926;2023-06-14T04:18:36;3.83;;;2.30;;
46835;SDS011;32573;51.290;6.926;2023-06-14T04:21:04;4.78;;;2.53;;
46835;SDS011;32573;51.290;6.926;2023-06-14T04:23:36;4.55;;;2.60;;
46835;SDS011;32573;51.290;6.926;2023-06-14T04:26:05;4.68;;;2.70;;
46835;SDS011;32573;51.290;6.926;2023-06-14T04:28:33;4.93;;;2.80;;
46835;SDS011;32573;51.290;6.926;2023-06-14T04:31:09;5.60;;;2.83;;
46835;SDS011;32573;51.290;6.926;2023-06-14T04:33:40;4.03;;;2.30;;
46835;SDS011;32573;51.290;6.926;2023-06-14T04:36:18;4.22;;;2.60;;
46835;SDS011;32573;51.290;6.926;2023-06-14T04:38:50;4.60;;;2.67;;
46835;SDS011;32573;51.290;6.926;2023-06-14T04:41:23;4.35;;;2.50;;
46835;SDS011;32573;51.290;6.926;2023-06-14T04:43:58;4.55;;;2.47;;
46835;SDS011;32573;51.290;6.926;2023-06-14T04:46:32;5.20;;;2.65;;
46835;SDS011;32573;51.290;6.926;2023-06-14T04:49:12;4.30;;;2.70;;
46835;SDS011;32573;51.290;6.926;2023-06-14T04:51:42;4.75;;;2.55;;
46835;SDS011;32573;51.290;6.926;2023-06-14T04:54:12;4.93;;;2.85;;
46835;SDS011;32573;51.290;6.926;2023-06-14T04:56:42;4.60;;;2.67;;
46835;SDS011;32573;51.290;6.926;2023-06-14T04:59:12;5.00;;;2.67;;
46835;SDS011;32573;51.290;6.926;2023-06-14T05:01:42;4.32;;;2.40;;
46835;SDS011;32573;51.290;6.926;2023-06-14T05:04:15;4.22;;;2.42;;
46835;SDS011;32573;51.290;6.926;2023-06-14T05:06:45;4.53;;;2.17;;
46835;SDS011;32573;51.290;6.926;2023-06-14T05:09:16;4.30;;;2.53;;
46835;SDS011;32573;51.290;6.926;2023-06-14T05:11:49;4.15;;;2.20;;
46835;SDS011;32573;51.290;6.926;2023-06-14T05:14:18;4.70;;;2.38;;
46835;SDS011;32573;51.290;6.926;2023-06-14T05:16:50;4.38;;;2.25;;
46835;SDS011;32573;51.290;6.926;2023-06-14T05:19:19;4.75;;;2.30;;
46835;SDS011;32573;51.290;6.926;2023-06-14T05:21:47;4.18;;;2.35;;
46835;SDS011;32573;51.290;6.926;2023-06-14T05:24:17;4.18;;;2.35;;
46835;SDS011;32573;51.290;6.926;2023-06-14T05:26:46;4.95;;;2.75;;
46835;SDS011;32573;51.290;6.926;2023-06-14T05:29:16;4.25;;;2.38;;
46835;SDS011;32573;51.290;6.926;2023-06-14T05:31:45;4.68;;;2.42;;
46835;SDS011;32573;51.290;6.926;2023-06-14T05:34:14;4.00;;;2.17;;
46835;SDS011;32573;51.290;6.926;2023-06-14T05:36:46;4.10;;;2.10;;
46835;SDS011;32573;51.290;6.926;2023-06-14T05:39:14;5.25;;;2.30;;
46835;SDS011;32573;51.290;6.926;2023-06-14T05:41:45;3.72;;;2.10;;
46835;SDS011;32573;51.290;6.926;2023-06-14T05:44:16;5.43;;;2.20;;
46835;SDS011;32573;51.290;6.926;2023-06-14T05:46:45;4.18;;;2.33;;
46835;SDS011;32573;51.290;6.926;2023-06-14T05:49:14;4.03;;;2.20;;
46835;SDS011;32573;51.290;6.926;2023-06-14T05:51:42;3.58;;;2.05;;
46835;SDS011;32573;51.290;6.926;2023-06-14T05:54:11;4.50;;;2.38;;
46835;SDS011;32573;51.290;6.926;2023-06-14T05:56:39;4.68;;;2.42;;
46835;SDS011;32573;51.290;6.926;2023-06-14T05:59:09;4.70;;;2.40;;
46835;SDS011;32573;51.290;6.926;2023-06-14T06:01:38;4.38;;;2.40;;
46835;SDS011;32573;51.290;6.926;2023-06-14T06:04:07;4.72;;;2.30;;
46835;SDS011;32573;51.290;6.926;2023-06-14T06:06:36;5.45;;;2.35;;
46835;SDS011;32573;51.290;6.926;2023-06-14T06:09:04;4.22;;;2.30;;
46835;SDS011;32573;51.290;6.926;2023-06-14T06:11:34;5.40;;;2.67;;
46835;SDS011;32573;51.290;6.926;2023-06-14T06:16:48;4.60;;;2.30;;
46835;SDS011;32573;51.290;6.926;2023-06-14T06:19:17;4.05;;;2.17;;
46835;SDS011;32573;51.290;6.926;2023-06-14T06:21:46;5.15;;;2.40;;
46835;SDS011;32573;51.290;6.926;2023-06-14T06:24:14;4.45;;;2.20;;
46835;SDS011;32573;51.290;6.926;2023-06-14T06:26:43;6.38;;;2.45;;
46835;SDS011;32573;51.290;6.926;2023-06-14T06:29:12;3.67;;;2.10;;
46835;SDS011;32573;51.290;6.926;2023-06-14T06:31:42;3.65;;;1.90;;
46835;SDS011;32573;51.290;6.926;2023-06-14T06:34:12;4.15;;;2.33;;
46835;SDS011;32573;51.290;6.926;2023-06-14T06:36:41;5.07;;;2.30;;
46835;SDS011;32573;51.290;6.926;2023-06-14T06:39:10;3.78;;;1.95;;
46835;SDS011;32573;51.290;6.926;2023-06-14T06:41:38;3.70;;;2.10;;
46835;SDS011;32573;51.290;6.926;2023-06-14T06:44:07;4.55;;;2.20;;
46835;SDS011;32573;51.290;6.926;2023-06-14T06:46:38;4.38;;;2.20;;
46835;SDS011;32573;51.290;6.926;2023-06-14T06:49:11;4.55;;;2.10;;
46835;SDS011;32573;51.290;6.926;2023-06-14T06:51:41;4.82;;;2.20;;
46835;SDS011;32573;51.290;6.926;2023-06-14T06:54:10;3.67;;;2.08;;
46835;SDS011;32573;51.290;6.926;2023-06-14T06:56:39;4.90;;;2.40;;
46835;SDS011;32573;51.290;6.926;2023-06-14T06:59:07;3.78;;;2.30;;
46835;SDS011;32573;51.290;6.926;2023-06-14T07:01:35;4.35;;;2.30;;
46835;SDS011;32573;51.290;6.926;2023-06-14T07:04:04;5.60;;;2.53;;
46835;SDS011;32573;51.290;6.926;2023-06-14T07:06:34;4.03;;;2.10;;
46835;SDS011;32573;51.290;6.926;2023-06-14T07:09:03;6.72;;;2.08;;
46835;SDS011;32573;51.290;6.926;2023-06-14T07:11:32;4.82;;;1.95;;
46835;SDS011;32573;51.290;6.926;2023-06-14T07:14:00;4.57;;;1.88;;
46835;SDS011;32573;51.290;6.926;2023-06-14T07:16:28;4.03;;;2.00;;
46835;SDS011;32573;51.290;6.926;2023-06-14T07:18:57;4.28;;;2.08;;
46835;SDS011;32573;51.290;6.926;2023-06-14T07:21:26;4.05;;;1.80;;
46835;SDS011;32573;51.290;6.926;2023-06-14T07:23:55;4.00;;;1.88;;
46835;SDS011;32573;51.290;6.926;2023-06-14T07:26:24;3.40;;;1.70;;
46835;SDS011;32573;51.290;6.926;2023-06-14T07:28:53;3.95;;;1.90;;
46835;SDS011;32573;51.290;6.926;2023-06-14T07:31:21;3.38;;;1.70;;
46835;SDS011;32573;51.290;6.926;2023-06-14T07:33:50;4.20;;;1.90;;
46835;SDS011;32573;51.290;6.926;2023-06-14T07:36:18;4.05;;;2.30;;
46835;SDS011;32573;51.290;6.926;2023-06-14T07:38:47;5.03;;;2.08;;
46835;SDS011;32573;51.290;6.926;2023-06-14T07:41:17;3.22;;;1.70;;
46835;SDS011;32573;51.290;6.926;2023-06-14T07:43:45;3.50;;;1.65;;
46835;SDS011;32573;51.290;6.926;2023-06-14T07:46:14;4.00;;;1.60;;
46835;SDS011;32573;51.290;6.926;2023-06-14T07:48:42;3.50;;;1.58;;
46835;SDS011;32573;51.290;6.926;2023-06-14T07:51:11;3.65;;;1.80;;
46835;SDS011;32573;51.290;6.926;2023-06-14T07:53:39;4.07;;;1.50;;
46835;SDS011;32573;51.290;6.926;2023-06-14T07:56:09;3.50;;;1.50;;
46835;SDS011;32573;51.290;6.926;2023-06-14T07:58:38;2.97;;;1.40;;
46835;SDS011;32573;51.290;6.926;2023-06-14T08:01:10;4.60;;;1.70;;
46835;SDS011;32573;51.290;6.926;2023-06-14T08:03:39;4.75;;;1.80;;
46835;SDS011;32573;51.290;6.926;2023-06-14T08:06:07;5.05;;;1.60;;
46835;SDS011;32573;51.290;6.926;2023-06-14T08:08:36;3.50;;;1.50;;
46835;SDS011;32573;51.290;6.926;2023-06-14T08:11:05;4.18;;;1.40;;
46835;SDS011;32573;51.290;6.926;2023-06-14T08:13:33;3.10;;;1.60;;
46835;SDS011;32573;51.290;6.926;2023-06-14T08:16:03;5.18;;;1.80;;
46835;SDS011;32573;51.290;6.926;2023-06-14T08:18:33;4.22;;;1.58;;
46835;SDS011;32573;51.290;6.926;2023-06-14T08:21:01;3.10;;;1.60;;
46835;SDS011;32573;51.290;6.926;2023-06-14T08:23:30;4.88;;;1.50;;
46835;SDS011;32573;51.290;6.926;2023-06-14T08:25:59;3.35;;;1.70;;
46835;SDS011;32573;51.290;6.926;2023-06-14T08:28:31;3.50;;;1.80;;
46835;SDS011;32573;51.290;6.926;2023-06-14T08:30:59;4.80;;;1.83;;
46835;SDS011;32573;51.290;6.926;2023-06-14T08:33:30;4.55;;;1.95;;
46835;SDS011;32573;51.290;6.926;2023-06-14T08:36:00;4.72;;;1.80;;
46835;SDS011;32573;51.290;6.926;2023-06-14T08:38:29;5.15;;;1.60;;
46835;SDS011;32573;51.290;6.926;2023-06-14T08:40:58;4.22;;;2.00;;
46835;SDS011;32573;51.290;6.926;2023-06-14T08:43:28;3.17;;;1.63;;
46835;SDS011;32573;51.290;6.926;2023-06-14T08:45:58;4.00;;;1.40;;
46835;SDS011;32573;51.290;6.926;2023-06-14T08:48:29;4.18;;;1.52;;
46835;SDS011;32573;51.290;6.926;2023-06-14T08:51:00;4.93;;;1.80;;
46835;SDS011;32573;51.290;6.926;2023-06-14T08:53:30;3.70;;;1.60;;
46835;SDS011;32573;51.290;6.926;2023-06-14T08:56:04;4.55;;;1.50;;
46835;SDS011;32573;51.290;6.926;2023-06-14T08:58:35;3.10;;;1.60;;
46835;SDS011;32573;51.290;6.926;2023-06-14T09:01:05;3.40;;;1.70;;
46835;SDS011;32573;51.290;6.926;2023-06-14T09:03:36;3.80;;;1.55;;
46835;SDS011;32573;51.290;6.926;2023-06-14T09:06:08;3.42;;;1.50;;
46835;SDS011;32573;51.290;6.926;2023-06-14T09:08:43;3.15;;;1.52;;
46835;SDS011;32573;51.290;6.926;2023-06-14T09:11:13;3.38;;;1.50;;
46835;SDS011;32573;51.290;6.926;2023-06-14T09:13:46;4.43;;;1.70;;
46835;SDS011;32573;51.290;6.926;2023-06-14T09:16:17;4.15;;;1.50;;
46835;SDS011;32573;51.290;6.926;2023-06-14T09:18:47;3.97;;;1.50;;
46835;SDS011;32573;51.290;6.926;2023-06-14T09:21:17;4.47;;;1.70;;
46835;SDS011;32573;51.290;6.926;2023-06-14T09:23:45;3.60;;;1.70;;
46835;SDS011;32573;51.290;6.926;2023-06-14T09:26:18;3.45;;;1.60;;
46835;SDS011;32573;51.290;6.926;2023-06-14T09:28:50;3.67;;;1.67;;
46835;SDS011;32573;51.290;6.926;2023-06-14T09:31:19;3.20;;;1.50;;
46835;SDS011;32573;51.290;6.926;2023-06-14T09:33:50;3.83;;;1.60;;
46835;SDS011;32573;51.290;6.926;2023-06-14T09:36:22;2.92;;;1.30;;
46835;SDS011;32573;51.290;6.926;2023-06-14T09:38:52;3.67;;;1.58;;
46835;SDS011;32573;51.290;6.926;2023-06-14T09:41:27;3.83;;;1.52;;
46835;SDS011;32573;51.290;6.926;2023-06-14T09:43:58;4.07;;;1.50;;
46835;SDS011;32573;51.290;6.926;2023-06-14T09:49:04;3.60;;;1.52;;
46835;SDS011;32573;51.290;6.926;2023-06-14T09:51:33;3.40;;;1.45;;
46835;SDS011;32573;51.290;6.926;2023-06-14T09:54:05;4.45;;;1.65;;
46835;SDS011;32573;51.290;6.926;2023-06-14T09:56:37;3.33;;;1.40;;
46835;SDS011;32573;51.290;6.926;2023-06-14T09:59:09;3.40;;;1.60;;
46835;SDS011;32573;51.290;6.926;2023-06-14T10:01:40;2.72;;;1.20;;
46835;SDS011;32573;51.290;6.926;2023-06-14T10:04:14;2.92;;;1.30;;
46835;SDS011;32573;51.290;6.926;2023-06-14T10:06:47;3.63;;;1.33;;
46835;SDS011;32573;51.290;6.926;2023-06-14T10:09:16;2.95;;;1.35;;
46835;SDS011;32573;51.290;6.926;2023-06-14T10:11:46;3.33;;;1.40;;
46835;SDS011;32573;51.290;6.926;2023-06-14T10:14:16;4.68;;;1.38;;
46835;SDS011;32573;51.290;6.926;2023-06-14T10:16:52;3.20;;;1.30;;
46835;SDS011;32573;51.290;6.926;2023-06-14T10:19:27;3.15;;;1.30;;
46835;SDS011;32573;51.290;6.926;2023-06-14T10:22:02;3.03;;;1.50;;
46835;SDS011;32573;51.290;6.926;2023-06-14T10:24:41;3.22;;;1.30;;
46835;SDS011;32573;51.290;6.926;2023-06-14T10:27:12;3.88;;;1.30;;
46835;SDS011;32573;51.290;6.926;2023-06-14T10:30:01;2.78;;;1.30;;
46835;SDS011;32573;51.290;6.926;2023-06-14T10:32:32;3.15;;;1.38;;
46835;SDS011;32573;51.290;6.926;2023-06-14T10:35:04;3.15;;;1.30;;
46835;SDS011;32573;51.290;6.926;2023-06-14T10:37:33;2.92;;;1.30;;
46835;SDS011;32573;51.290;6.926;2023-06-14T10:40:02;3.95;;;1.40;;
46835;SDS011;32573;51.290;6.926;2023-06-14T10:42:34;2.47;;;1.20;;
46835;SDS011;32573;51.290;6.926;2023-06-14T10:45:03;4.07;;;1.40;;
46835;SDS011;32573;51.290;6.926;2023-06-14T10:47:33;4.15;;;1.50;;
46835;SDS011;32573;51.290;6.926;2023-06-14T10:50:06;3.90;;;1.30;;
46835;SDS011;32573;51.290;6.926;2023-06-14T10:52:38;2.92;;;1.35;;
46835;SDS011;32573;51.290;6.926;2023-06-14T10:55:13;3.78;;;1.55;;
46835;SDS011;32573;51.290;6.926;2023-06-14T10:57:46;2.80;;;1.33;;
46835;SDS011;32573;51.290;6.926;2023-06-14T11:00:20;2.70;;;1.20;;
46835;SDS011;32573;51.290;6.926;2023-06-14T11:03:17;3.53;;;1.50;;
46835;SDS011;32573;51.290;6.926;2023-06-14T11:09:10;3.47;;;1.30;;
46835;SDS011;32573;51.290;6.926;2023-06-14T11:11:54;3.25;;;1.40;;
46835;SDS011;32573;51.290;6.926;2023-06-14T11:14:25;2.20;;;1.23;;
46835;SDS011;32573;51.290;6.926;2023-06-14T11:16:57;3.13;;;1.40;;
46835;SDS011;32573;51.290;6.926;2023-06-14T11:19:27;2.70;;;1.40;;
46835;SDS011;32573;51.290;6.926;2023-06-14T11:21:57;3.25;;;1.42;;
46835;SDS011;32573;51.290;6.926;2023-06-14T11:24:27;4.07;;;1.38;;
46835;SDS011;32573;51.290;6.926;2023-06-14T11:26:55;2.72;;;1.40;;
46835;SDS011;32573;51.290;6.926;2023-06-14T11:29:24;3.22;;;1.35;;
46835;SDS011;32573;51.290;6.926;2023-06-14T11:31:54;3.55;;;1.45;;
46835;SDS011;32573;51.290;6.926;2023-06-14T11:34:22;2.45;;;1.20;;
46835;SDS011;32573;51.290;6.926;2023-06-14T11:36:52;2.90;;;1.27;;
46835;SDS011;32573;51.290;6.926;2023-06-14T11:39:25;3.13;;;1.40;;
46835;SDS011;32573;51.290;6.926;2023-06-14T11:41:54;3.03;;;1.38;;
46835;SDS011;32573;51.290;6.926;2023-06-14T11:44:24;2.63;;;1.25;;
46835;SDS011;32573;51.290;6.926;2023-06-14T11:46:53;3.42;;;1.15;;
46835;SDS011;32573;51.290;6.926;2023-06-14T11:49:24;2.80;;;1.30;;
46835;SDS011;32573;51.290;6.926;2023-06-14T11:51:54;2.83;;;1.30;;
46835;SDS011;32573;51.290;6.926;2023-06-14T11:54:25;3.08;;;1.20;;
46835;SDS011;32573;51.290;6.926;2023-06-14T11:56:53;3.17;;;1.10;;
46835;SDS011;32573;51.290;6.926;2023-06-14T11:59:22;2.75;;;1.35;;
46835;SDS011;32573;51.290;6.926;2023-06-14T12:01:55;3.83;;;1.38;;
46835;SDS011;32573;51.290;6.926;2023-06-14T12:04:26;2.88;;;1.27;;
46835;SDS011;32573;51.290;6.926;2023-06-14T12:06:55;2.72;;;1.30;;
46835;SDS011;32573;51.290;6.926;2023-06-14T12:09:25;3.45;;;1.25;;
46835;SDS011;32573;51.290;6.926;2023-06-14T12:11:59;2.75;;;1.20;;
46835;SDS011;32573;51.290;6.926;2023-06-14T12:14:28;2.63;;;1.20;;
46835;SDS011;32573;51.290;6.926;2023-06-14T12:17:03;2.55;;;1.23;;
46835;SDS011;32573;51.290;6.926;2023-06-14T12:19:40;3.20;;;1.20;;
46835;SDS011;32573;51.290;6.926;2023-06-14T12:22:10;3.67;;;1.23;;
46835;SDS011;32573;51.290;6.926;2023-06-14T12:24:40;4.22;;;1.17;;
46835;SDS011;32573;51.290;6.926;2023-06-14T12:27:14;2.63;;;1.25;;
46835;SDS011;32573;51.290;6.926;2023-06-14T12:29:45;3.90;;;1.30;;
46835;SDS011;32573;51.290;6.926;2023-06-14T12:32:14;3.60;;;1.35;;
46835;SDS011;32573;51.290;6.926;2023-06-14T12:34:43;3.67;;;1.30;;
46835;SDS011;32573;51.290;6.926;2023-06-14T12:37:12;3.78;;;1.60;;
46835;SDS011;32573;51.290;6.926;2023-06-14T12:39:42;2.65;;;1.30;;
46835;SDS011;32573;51.290;6.926;2023-06-14T12:42:10;3.30;;;1.30;;
46835;SDS011;32573;51.290;6.926;2023-06-14T12:44:40;3.00;;;1.20;;
46835;SDS011;32573;51.290;6.926;2023-06-14T12:47:09;2.63;;;1.20;;
46835;SDS011;32573;51.290;6.926;2023-06-14T12:49:42;2.17;;;1.13;;
46835;SDS011;32573;51.290;6.926;2023-06-14T12:52:11;2.70;;;1.30;;
46835;SDS011;32573;51.290;6.926;2023-06-14T12:54:41;2.80;;;1.40;;
46835;SDS011;32573;51.290;6.926;2023-06-14T12:57:10;3.00;;;1.23;;
46835;SDS011;32573;51.290;6.926;2023-06-14T12:59:38;3.10;;;1.40;;
46835;SDS011;32573;51.290;6.926;2023-06-14T13:02:12;3.67;;;1.40;;
46835;SDS011;32573;51.290;6.926;2023-06-14T13:04:41;3.00;;;1.40;;
46835;SDS011;32573;51.290;6.926;2023-06-14T13:07:10;3.90;;;1.50;;
46835;SDS011;32573;51.290;6.926;2023-06-14T13:09:39;3.10;;;1.50;;
46835;SDS011;32573;51.290;6.926;2023-06-14T13:12:09;3.58;;;1.75;;
46835;SDS011;32573;51.290;6.926;2023-06-14T13:14:39;3.88;;;1.52;;
46835;SDS011;32573;51.290;6.926;2023-06-14T13:17:08;4.93;;;1.60;;
46835;SDS011;32573;51.290;6.926;2023-06-14T13:19:37;3.70;;;1.63;;
46835;SDS011;32573;51.290;6.926;2023-06-14T13:22:06;3.75;;;1.63;;
46835;SDS011;32573;51.290;6.926;2023-06-14T13:24:35;3.03;;;1.55;;
46835;SDS011;32573;51.290;6.926;2023-06-14T13:27:04;2.83;;;1.42;;
46835;SDS011;32573;51.290;6.926;2023-06-14T13:29:34;4.07;;;1.50;;
46835;SDS011;32573;51.290;6.926;2023-06-14T13:32:04;3.13;;;1.50;;
46835;SDS011;32573;51.290;6.926;2023-06-14T13:34:33;2.88;;;1.30;;
46835;SDS011;32573;51.290;6.926;2023-06-14T13:37:01;3.10;;;1.40;;
46835;SDS011;32573;51.290;6.926;2023-06-14T13:39:29;3.47;;;1.63;;
46835;SDS011;32573;51.290;6.926;2023-06-14T13:41:58;2.38;;;1.20;;
46835;SDS011;32573;51.290;6.926;2023-06-14T13:44:26;2.92;;;1.60;;
46835;SDS011;32573;51.290;6.926;2023-06-14T13:46:56;3.10;;;1.80;;
46835;SDS011;32573;51.290;6.926;2023-06-14T13:49:25;3.40;;;1.70;;
46835;SDS011;32573;51.290;6.926;2023-06-14T13:51:53;2.70;;;1.40;;
46835;SDS011;32573;51.290;6.926;2023-06-14T13:54:22;2.58;;;1.38;;
46835;SDS011;32573;51.290;6.926;2023-06-14T13:56:50;3.53;;;1.50;;
46835;SDS011;32573;51.290;6.926;2023-06-14T13:59:18;2.60;;;1.30;;
46835;SDS011;32573;51.290;6.926;2023-06-14T14:01:47;3.65;;;1.50;;
46835;SDS011;32573;51.290;6.926;2023-06-14T14:04:17;3.08;;;1.30;;
46835;SDS011;32573;51.290;6.926;2023-06-14T14:06:45;3.40;;;1.40;;
46835;SDS011;32573;51.290;6.926;2023-06-14T14:09:15;3.33;;;1.63;;
46835;SDS011;32573;51.290;6.926;2023-06-14T14:11:44;3.67;;;1.73;;
46835;SDS011;32573;51.290;6.926;2023-06-14T14:14:12;2.72;;;1.30;;
46835;SDS011;32573;51.290;6.926;2023-06-14T14:16:41;3.85;;;1.40;;
46835;SDS011;32573;51.290;6.926;2023-06-14T14:19:09;4.00;;;1.58;;
46835;SDS011;32573;51.290;6.926;2023-06-14T14:21:40;3.10;;;1.55;;
46835;SDS011;32573;51.290;6.926;2023-06-14T14:24:08;3.70;;;1.50;;
46835;SDS011;32573;51.290;6.926;2023-06-14T14:26:37;3.20;;;1.50;;
46835;SDS011;32573;51.290;6.926;2023-06-14T14:29:06;2.97;;;1.55;;
46835;SDS011;32573;51.290;6.926;2023-06-14T14:31:34;3.00;;;1.58;;
46835;SDS011;32573;51.290;6.926;2023-06-14T14:34:03;3.70;;;1.60;;
46835;SDS011;32573;51.290;6.926;2023-06-14T14:36:31;2.80;;;1.50;;
46835;SDS011;32573;51.290;6.926;2023-06-14T14:39:04;3.42;;;1.55;;
46835;SDS011;32573;51.290;6.926;2023-06-14T14:41:33;2.85;;;1.48;;
46835;SDS011;32573;51.290;6.926;2023-06-14T14:44:02;3.20;;;1.50;;
46835;SDS011;32573;51.290;6.926;2023-06-14T14:46:31;2.92;;;1.50;;
46835;SDS011;32573;51.290;6.926;2023-06-14T14:49:00;3.50;;;1.60;;
46835;SDS011;32573;51.290;6.926;2023-06-14T14:51:28;4.43;;;2.15;;
46835;SDS011;32573;51.290;6.926;2023-06-14T14:53:57;3.22;;;1.50;;
46835;SDS011;32573;51.290;6.926;2023-06-14T14:56:26;3.42;;;1.42;;
46835;SDS011;32573;51.290;6.926;2023-06-14T14:58:55;3.08;;;1.60;;
46835;SDS011;32573;51.290;6.926;2023-06-14T15:01:23;4.18;;;1.40;;
46835;SDS011;32573;51.290;6.926;2023-06-14T15:03:52;3.70;;;1.88;;
46835;SDS011;32573;51.290;6.926;2023-06-14T15:08:54;3.10;;;1.60;;
46835;SDS011;32573;51.290;6.926;2023-06-14T15:11:22;3.25;;;1.60;;
46835;SDS011;32573;51.290;6.926;2023-06-14T15:13:52;4.53;;;2.00;;
46835;SDS011;32573;51.290;6.926;2023-06-14T15:16:20;4.28;;;1.77;;